sensor_id;sensor_type;location;lat;lon;timestamp;P1;durP1;ratioP1;P2;durP2;ratioP2
12784;SDS011;6456;42.680;23.260;2022-08-07T00:02:04;5.43;;;5.03;;
12784;SDS011;6456;42.680;23.260;2022-08-07T00:04:31;6.05;;;5.50;;
12784;SDS011;6456;42.680;23.260;2022-08-07T00:06:58;5.93;;;5.40;;
12784;SDS011;6456;42.680;23.260;2022-08-07T00:09:25;6.47;;;5.25;;
12784;SDS011;6456;42.680;23.260;2022-08-07T00:11:51;5.97;;;5.38;;
12784;SDS011;6456;42.680;23.260;2022-08-07T00:14:19;6.53;;;5.57;;
12784;SDS011;6456;42.680;23.260;2022-08-07T00:16:48;5.30;;;4.90;;
12784;SDS011;6456;42.680;23.260;2022-08-07T00:19:15;6.47;;;5.45;;
12784;SDS011;6456;42.680;23.260;2022-08-07T00:21:43;5.68;;;5.18;;
12784;SDS011;6456;42.680;23.260;2022-08-07T00:24:10;5.78;;;5.35;;
12784;SDS011;6456;42.680;23.260;2022-08-07T00:26:37;5.68;;;5.28;;
12784;SDS011;6456;42.680;23.260;2022-08-07T00:29:04;5.40;;;4.97;;
12784;SDS011;6456;42.680;23.260;2022-08-07T00:31:30;5.50;;;5.10;;
12784;SDS011;6456;42.680;23.260;2022-08-07T00:33:59;7.55;;;5.60;;
12784;SDS011;6456;42.680;23.260;2022-08-07T00:36:26;5.38;;;4.97;;
12784;SDS011;6456;42.680;23.260;2022-08-07T00:38:53;6.10;;;5.18;;
12784;SDS011;6456;42.680;23.260;2022-08-07T00:41:24;5.85;;;5.25;;
12784;SDS011;6456;42.680;23.260;2022-08-07T00:43:51;5.75;;;5.35;;
12784;SDS011;6456;42.680;23.260;2022-08-07T00:46:18;5.97;;;5.30;;
12784;SDS011;6456;42.680;23.260;2022-08-07T00:48:45;5.82;;;5.35;;
12784;SDS011;6456;42.680;23.260;2022-08-07T00:51:14;5.70;;;5.20;;
12784;SDS011;6456;42.680;23.260;2022-08-07T00:53:41;5.90;;;5.40;;
12784;SDS011;6456;42.680;23.260;2022-08-07T00:56:08;5.50;;;5.00;;
12784;SDS011;6456;42.680;23.260;2022-08-07T00:58:40;5.85;;;5.35;;
12784;SDS011;6456;42.680;23.260;2022-08-07T01:01:08;5.70;;;5.30;;
12784;SDS011;6456;42.680;23.260;2022-08-07T01:03:35;5.13;;;4.72;;
12784;SDS011;6456;42.680;23.260;2022-08-07T01:06:02;5.63;;;5.22;;
12784;SDS011;6456;42.680;23.260;2022-08-07T01:08:31;6.65;;;5.90;;
12784;SDS011;6456;42.680;23.260;2022-08-07T01:10:58;6.10;;;5.60;;
12784;SDS011;6456;42.680;23.260;2022-08-07T01:13:25;6.32;;;5.63;;
12784;SDS011;6456;42.680;23.260;2022-08-07T01:15:53;6.00;;;5.47;;
12784;SDS011;6456;42.680;23.260;2022-08-07T01:18:22;5.65;;;5.15;;
12784;SDS011;6456;42.680;23.260;2022-08-07T01:20:53;5.53;;;5.05;;
12784;SDS011;6456;42.680;23.260;2022-08-07T01:23:30;5.90;;;5.40;;
12784;SDS011;6456;42.680;23.260;2022-08-07T01:25:58;7.53;;;5.53;;
12784;SDS011;6456;42.680;23.260;2022-08-07T01:28:26;5.70;;;5.30;;
12784;SDS011;6456;42.680;23.260;2022-08-07T01:30:54;8.83;;;6.30;;
12784;SDS011;6456;42.680;23.260;2022-08-07T01:33:22;6.37;;;5.73;;
12784;SDS011;6456;42.680;23.260;2022-08-07T01:35:50;7.83;;;6.20;;
12784;SDS011;6456;42.680;23.260;2022-08-07T01:38:18;6.77;;;6.13;;
12784;SDS011;6456;42.680;23.260;2022-08-07T01:40:46;6.47;;;5.97;;
12784;SDS011;6456;42.680;23.260;2022-08-07T01:43:14;7.40;;;6.40;;
12784;SDS011;6456;42.680;23.260;2022-08-07T01:45:41;6.70;;;6.10;;
12784;SDS011;6456;42.680;23.260;2022-08-07T01:48:09;7.10;;;6.40;;
12784;SDS011;6456;42.680;23.260;2022-08-07T01:50:36;6.07;;;5.63;;
12784;SDS011;6456;42.680;23.260;2022-08-07T01:53:06;11.13;;;6.70;;
12784;SDS011;6456;42.680;23.260;2022-08-07T01:55:38;7.10;;;5.78;;
12784;SDS011;6456;42.680;23.260;2022-08-07T01:58:09;6.45;;;5.82;;
12784;SDS011;6456;42.680;23.260;2022-08-07T02:00:39;6.67;;;6.07;;
12784;SDS011;6456;42.680;23.260;2022-08-07T02:03:10;6.67;;;6.07;;
12784;SDS011;6456;42.680;23.260;2022-08-07T02:05:40;7.22;;;6.63;;
12784;SDS011;6456;42.680;23.260;2022-08-07T02:08:12;7.50;;;6.90;;
12784;SDS011;6456;42.680;23.260;2022-08-07T02:10:44;8.13;;;7.33;;
12784;SDS011;6456;42.680;23.260;2022-08-07T02:13:13;8.47;;;7.33;;
12784;SDS011;6456;42.680;23.260;2022-08-07T02:15:42;8.40;;;7.60;;
12784;SDS011;6456;42.680;23.260;2022-08-07T02:18:10;10.83;;;7.77;;
12784;SDS011;6456;42.680;23.260;2022-08-07T02:20:39;10.50;;;8.40;;
12784;SDS011;6456;42.680;23.260;2022-08-07T02:23:07;8.67;;;7.70;;
12784;SDS011;6456;42.680;23.260;2022-08-07T02:25:37;9.33;;;8.43;;
12784;SDS011;6456;42.680;23.260;2022-08-07T02:28:07;8.97;;;7.90;;
12784;SDS011;6456;42.680;23.260;2022-08-07T02:30:36;8.77;;;7.53;;
12784;SDS011;6456;42.680;23.260;2022-08-07T02:33:04;8.23;;;7.30;;
12784;SDS011;6456;42.680;23.260;2022-08-07T02:35:33;8.50;;;7.47;;
12784;SDS011;6456;42.680;23.260;2022-08-07T02:38:02;7.77;;;7.00;;
12784;SDS011;6456;42.680;23.260;2022-08-07T02:40:31;7.40;;;6.80;;
12784;SDS011;6456;42.680;23.260;2022-08-07T02:42:59;10.73;;;7.47;;
12784;SDS011;6456;42.680;23.260;2022-08-07T02:45:29;7.83;;;7.13;;
12784;SDS011;6456;42.680;23.260;2022-08-07T02:47:57;8.17;;;7.37;;
12784;SDS011;6456;42.680;23.260;2022-08-07T02:50:24;8.00;;;7.17;;
12784;SDS011;6456;42.680;23.260;2022-08-07T02:52:52;8.13;;;7.33;;
12784;SDS011;6456;42.680;23.260;2022-08-07T02:55:22;7.57;;;6.87;;
12784;SDS011;6456;42.680;23.260;2022-08-07T02:57:53;8.13;;;6.33;;
12784;SDS011;6456;42.680;23.260;2022-08-07T03:00:23;6.87;;;6.03;;
12784;SDS011;6456;42.680;23.260;2022-08-07T03:02:55;7.70;;;6.90;;
12784;SDS011;6456;42.680;23.260;2022-08-07T03:05:23;6.30;;;5.80;;
12784;SDS011;6456;42.680;23.260;2022-08-07T03:07:51;6.30;;;5.80;;
12784;SDS011;6456;42.680;23.260;2022-08-07T03:10:19;7.23;;;6.60;;
12784;SDS011;6456;42.680;23.260;2022-08-07T03:12:47;6.70;;;6.10;;
12784;SDS011;6456;42.680;23.260;2022-08-07T03:15:15;6.05;;;5.57;;
12784;SDS011;6456;42.680;23.260;2022-08-07T03:17:42;5.93;;;5.45;;
12784;SDS011;6456;42.680;23.260;2022-08-07T03:20:14;6.22;;;5.72;;
12784;SDS011;6456;42.680;23.260;2022-08-07T03:22:42;6.97;;;6.37;;
12784;SDS011;6456;42.680;23.260;2022-08-07T03:25:10;7.07;;;6.47;;
12784;SDS011;6456;42.680;23.260;2022-08-07T03:27:37;6.15;;;5.72;;
12784;SDS011;6456;42.680;23.260;2022-08-07T03:30:05;7.43;;;6.68;;
12784;SDS011;6456;42.680;23.260;2022-08-07T03:32:34;7.30;;;6.60;;
12784;SDS011;6456;42.680;23.260;2022-08-07T03:35:05;7.70;;;6.93;;
12784;SDS011;6456;42.680;23.260;2022-08-07T03:37:39;7.88;;;7.10;;
12784;SDS011;6456;42.680;23.260;2022-08-07T03:40:09;8.03;;;7.33;;
12784;SDS011;6456;42.680;23.260;2022-08-07T03:42:37;9.20;;;7.23;;
12784;SDS011;6456;42.680;23.260;2022-08-07T03:45:09;8.53;;;7.83;;
12784;SDS011;6456;42.680;23.260;2022-08-07T03:47:37;7.93;;;7.13;;
12784;SDS011;6456;42.680;23.260;2022-08-07T03:50:05;7.77;;;6.97;;
12784;SDS011;6456;42.680;23.260;2022-08-07T03:52:32;8.43;;;7.63;;
12784;SDS011;6456;42.680;23.260;2022-08-07T03:55:02;8.07;;;7.37;;
12784;SDS011;6456;42.680;23.260;2022-08-07T03:57:30;8.60;;;7.80;;
12784;SDS011;6456;42.680;23.260;2022-08-07T03:59:58;8.87;;;8.00;;
12784;SDS011;6456;42.680;23.260;2022-08-07T04:02:26;8.40;;;7.70;;
12784;SDS011;6456;42.680;23.260;2022-08-07T04:04:53;8.40;;;7.70;;
12784;SDS011;6456;42.680;23.260;2022-08-07T04:07:20;8.10;;;7.40;;
12784;SDS011;6456;42.680;23.260;2022-08-07T04:09:48;8.33;;;7.63;;
12784;SDS011;6456;42.680;23.260;2022-08-07T04:12:18;8.13;;;7.37;;
12784;SDS011;6456;42.680;23.260;2022-08-07T04:14:46;8.40;;;7.77;;
12784;SDS011;6456;42.680;23.260;2022-08-07T04:17:13;7.97;;;7.27;;
12784;SDS011;6456;42.680;23.260;2022-08-07T04:19:41;8.03;;;7.30;;
12784;SDS011;6456;42.680;23.260;2022-08-07T04:22:09;8.25;;;7.55;;
12784;SDS011;6456;42.680;23.260;2022-08-07T04:24:36;8.50;;;7.80;;
12784;SDS011;6456;42.680;23.260;2022-08-07T04:27:04;8.57;;;7.88;;
12784;SDS011;6456;42.680;23.260;2022-08-07T04:29:32;8.37;;;7.43;;
12784;SDS011;6456;42.680;23.260;2022-08-07T04:31:59;8.52;;;7.57;;
12784;SDS011;6456;42.680;23.260;2022-08-07T04:34:27;7.88;;;7.25;;
12784;SDS011;6456;42.680;23.260;2022-08-07T04:36:55;7.75;;;7.05;;
12784;SDS011;6456;42.680;23.260;2022-08-07T04:39:22;8.35;;;7.13;;
12784;SDS011;6456;42.680;23.260;2022-08-07T04:41:49;8.10;;;7.30;;
12784;SDS011;6456;42.680;23.260;2022-08-07T04:44:16;8.07;;;7.32;;
12784;SDS011;6456;42.680;23.260;2022-08-07T04:46:46;7.35;;;6.75;;
12784;SDS011;6456;42.680;23.260;2022-08-07T04:49:22;7.00;;;6.40;;
12784;SDS011;6456;42.680;23.260;2022-08-07T04:51:58;7.63;;;6.90;;
12784;SDS011;6456;42.680;23.260;2022-08-07T04:54:32;8.23;;;7.50;;
12784;SDS011;6456;42.680;23.260;2022-08-07T04:57:06;7.55;;;6.85;;
12784;SDS011;6456;42.680;23.260;2022-08-07T04:59:42;7.63;;;6.82;;
12784;SDS011;6456;42.680;23.260;2022-08-07T05:02:18;7.63;;;6.68;;
12784;SDS011;6456;42.680;23.260;2022-08-07T05:04:52;7.45;;;6.70;;
12784;SDS011;6456;42.680;23.260;2022-08-07T05:07:28;7.63;;;6.90;;
12784;SDS011;6456;42.680;23.260;2022-08-07T05:10:02;7.43;;;6.72;;
12784;SDS011;6456;42.680;23.260;2022-08-07T05:12:34;6.53;;;5.93;;
12784;SDS011;6456;42.680;23.260;2022-08-07T05:15:07;6.40;;;5.90;;
12784;SDS011;6456;42.680;23.260;2022-08-07T05:17:57;6.35;;;5.85;;
12784;SDS011;6456;42.680;23.260;2022-08-07T05:20:30;5.80;;;5.30;;
12784;SDS011;6456;42.680;23.260;2022-08-07T05:23:03;6.30;;;5.70;;
12784;SDS011;6456;42.680;23.260;2022-08-07T05:25:35;5.95;;;5.30;;
12784;SDS011;6456;42.680;23.260;2022-08-07T05:28:05;5.75;;;5.28;;
12784;SDS011;6456;42.680;23.260;2022-08-07T05:30:34;5.65;;;5.13;;
12784;SDS011;6456;42.680;23.260;2022-08-07T05:33:04;6.13;;;5.53;;
12784;SDS011;6456;42.680;23.260;2022-08-07T05:35:31;5.95;;;5.55;;
12784;SDS011;6456;42.680;23.260;2022-08-07T05:38:00;7.13;;;5.68;;
12784;SDS011;6456;42.680;23.260;2022-08-07T05:40:30;6.32;;;5.82;;
12784;SDS011;6456;42.680;23.260;2022-08-07T05:42:58;6.38;;;5.80;;
12784;SDS011;6456;42.680;23.260;2022-08-07T05:45:25;6.25;;;5.55;;
12784;SDS011;6456;42.680;23.260;2022-08-07T05:47:53;6.40;;;5.90;;
12784;SDS011;6456;42.680;23.260;2022-08-07T05:50:22;6.88;;;6.20;;
12784;SDS011;6456;42.680;23.260;2022-08-07T05:52:50;6.50;;;5.90;;
12784;SDS011;6456;42.680;23.260;2022-08-07T05:55:17;6.85;;;6.25;;
12784;SDS011;6456;42.680;23.260;2022-08-07T05:57:44;7.78;;;6.22;;
12784;SDS011;6456;42.680;23.260;2022-08-07T06:00:13;7.47;;;6.85;;
12784;SDS011;6456;42.680;23.260;2022-08-07T06:02:40;7.30;;;6.60;;
12784;SDS011;6456;42.680;23.260;2022-08-07T06:05:13;7.53;;;6.72;;
12784;SDS011;6456;42.680;23.260;2022-08-07T06:07:42;8.82;;;7.13;;
12784;SDS011;6456;42.680;23.260;2022-08-07T06:10:10;7.93;;;6.80;;
12784;SDS011;6456;42.680;23.260;2022-08-07T06:12:37;6.22;;;5.72;;
12784;SDS011;6456;42.680;23.260;2022-08-07T06:15:04;7.50;;;6.85;;
12784;SDS011;6456;42.680;23.260;2022-08-07T06:17:34;7.10;;;6.40;;
12784;SDS011;6456;42.680;23.260;2022-08-07T06:20:02;6.28;;;5.78;;
12784;SDS011;6456;42.680;23.260;2022-08-07T06:22:30;6.18;;;5.68;;
12784;SDS011;6456;42.680;23.260;2022-08-07T06:25:00;6.32;;;5.72;;
12784;SDS011;6456;42.680;23.260;2022-08-07T06:27:27;6.80;;;6.20;;
12784;SDS011;6456;42.680;23.260;2022-08-07T06:29:54;6.38;;;5.85;;
12784;SDS011;6456;42.680;23.260;2022-08-07T06:32:20;8.68;;;6.20;;
12784;SDS011;6456;42.680;23.260;2022-08-07T06:34:47;6.80;;;6.20;;
12784;SDS011;6456;42.680;23.260;2022-08-07T06:37:14;7.90;;;7.20;;
12784;SDS011;6456;42.680;23.260;2022-08-07T06:39:41;7.18;;;6.55;;
12784;SDS011;6456;42.680;23.260;2022-08-07T06:42:11;15.40;;;5.90;;
12784;SDS011;6456;42.680;23.260;2022-08-07T06:44:43;6.68;;;6.07;;
12784;SDS011;6456;42.680;23.260;2022-08-07T06:47:11;6.47;;;5.97;;
12784;SDS011;6456;42.680;23.260;2022-08-07T06:49:38;7.57;;;7.00;;
12784;SDS011;6456;42.680;23.260;2022-08-07T06:52:06;7.82;;;6.75;;
12784;SDS011;6456;42.680;23.260;2022-08-07T06:54:35;9.52;;;7.00;;
12784;SDS011;6456;42.680;23.260;2022-08-07T06:57:03;6.90;;;6.30;;
12784;SDS011;6456;42.680;23.260;2022-08-07T06:59:34;7.25;;;6.63;;
12784;SDS011;6456;42.680;23.260;2022-08-07T07:02:03;7.30;;;6.65;;
12784;SDS011;6456;42.680;23.260;2022-08-07T07:04:32;6.57;;;5.97;;
12784;SDS011;6456;42.680;23.260;2022-08-07T07:07:00;6.82;;;6.25;;
12784;SDS011;6456;42.680;23.260;2022-08-07T07:09:28;7.00;;;6.40;;
12784;SDS011;6456;42.680;23.260;2022-08-07T07:12:13;8.75;;;6.55;;
12784;SDS011;6456;42.680;23.260;2022-08-07T07:14:52;7.80;;;6.90;;
12784;SDS011;6456;42.680;23.260;2022-08-07T07:17:25;7.35;;;6.57;;
12784;SDS011;6456;42.680;23.260;2022-08-07T07:20:02;6.82;;;6.22;;
12784;SDS011;6456;42.680;23.260;2022-08-07T07:22:33;7.10;;;6.50;;
12784;SDS011;6456;42.680;23.260;2022-08-07T07:25:01;7.78;;;7.03;;
12784;SDS011;6456;42.680;23.260;2022-08-07T07:27:32;8.10;;;6.70;;
12784;SDS011;6456;42.680;23.260;2022-08-07T07:30:05;6.93;;;6.32;;
12784;SDS011;6456;42.680;23.260;2022-08-07T07:32:34;7.22;;;6.63;;
12784;SDS011;6456;42.680;23.260;2022-08-07T07:35:04;7.65;;;6.95;;
12784;SDS011;6456;42.680;23.260;2022-08-07T07:37:34;7.68;;;6.97;;
12784;SDS011;6456;42.680;23.260;2022-08-07T07:40:03;7.22;;;6.63;;
12784;SDS011;6456;42.680;23.260;2022-08-07T07:42:33;7.47;;;6.85;;
12784;SDS011;6456;42.680;23.260;2022-08-07T07:45:02;6.43;;;5.82;;
12784;SDS011;6456;42.680;23.260;2022-08-07T07:47:32;6.30;;;5.80;;
12784;SDS011;6456;42.680;23.260;2022-08-07T07:50:12;5.80;;;5.30;;
12784;SDS011;6456;42.680;23.260;2022-08-07T07:52:43;6.30;;;5.78;;
12784;SDS011;6456;42.680;23.260;2022-08-07T07:55:11;6.10;;;5.60;;
12784;SDS011;6456;42.680;23.260;2022-08-07T07:57:40;6.05;;;5.55;;
12784;SDS011;6456;42.680;23.260;2022-08-07T08:00:11;6.50;;;5.88;;
12784;SDS011;6456;42.680;23.260;2022-08-07T08:02:39;8.50;;;6.18;;
12784;SDS011;6456;42.680;23.260;2022-08-07T08:05:08;8.23;;;7.50;;
12784;SDS011;6456;42.680;23.260;2022-08-07T08:07:37;8.50;;;7.70;;
12784;SDS011;6456;42.680;23.260;2022-08-07T08:10:05;7.68;;;7.07;;
12784;SDS011;6456;42.680;23.260;2022-08-07T08:12:33;9.60;;;8.27;;
12784;SDS011;6456;42.680;23.260;2022-08-07T08:15:01;9.25;;;8.35;;
12784;SDS011;6456;42.680;23.260;2022-08-07T08:17:30;10.27;;;9.27;;
12784;SDS011;6456;42.680;23.260;2022-08-07T08:20:02;11.07;;;10.10;;
12784;SDS011;6456;42.680;23.260;2022-08-07T08:22:32;10.80;;;9.80;;
12784;SDS011;6456;42.680;23.260;2022-08-07T08:25:20;10.80;;;9.70;;
12784;SDS011;6456;42.680;23.260;2022-08-07T08:28:06;11.05;;;10.05;;
12784;SDS011;6456;42.680;23.260;2022-08-07T08:30:37;11.18;;;10.18;;
12784;SDS011;6456;42.680;23.260;2022-08-07T08:33:08;11.50;;;9.35;;
12784;SDS011;6456;42.680;23.260;2022-08-07T08:46:05;7.10;;;6.50;;
12784;SDS011;6456;42.680;23.260;2022-08-07T08:48:38;7.90;;;7.30;;
12784;SDS011;6456;42.680;23.260;2022-08-07T08:51:15;8.95;;;8.10;;
12784;SDS011;6456;42.680;23.260;2022-08-07T08:53:46;8.57;;;7.78;;
12784;SDS011;6456;42.680;23.260;2022-08-07T08:56:20;8.50;;;7.70;;
12784;SDS011;6456;42.680;23.260;2022-08-07T08:58:52;8.60;;;7.80;;
12784;SDS011;6456;42.680;23.260;2022-08-07T09:01:26;7.70;;;7.10;;
12784;SDS011;6456;42.680;23.260;2022-08-07T09:04:05;7.60;;;6.90;;
12784;SDS011;6456;42.680;23.260;2022-08-07T09:06:36;7.45;;;6.85;;
12784;SDS011;6456;42.680;23.260;2022-08-07T09:09:12;9.02;;;7.13;;
12784;SDS011;6456;42.680;23.260;2022-08-07T09:11:53;7.47;;;6.85;;
12784;SDS011;6456;42.680;23.260;2022-08-07T09:14:38;7.72;;;7.00;;
12784;SDS011;6456;42.680;23.260;2022-08-07T09:17:14;8.48;;;7.53;;
12784;SDS011;6456;42.680;23.260;2022-08-07T09:19:51;7.10;;;6.50;;
12784;SDS011;6456;42.680;23.260;2022-08-07T09:22:28;7.43;;;6.63;;
12784;SDS011;6456;42.680;23.260;2022-08-07T09:25:06;7.20;;;6.50;;
12784;SDS011;6456;42.680;23.260;2022-08-07T09:27:39;7.47;;;6.85;;
12784;SDS011;6456;42.680;23.260;2022-08-07T09:30:11;8.52;;;7.50;;
12784;SDS011;6456;42.680;23.260;2022-08-07T09:35:32;7.45;;;6.60;;
12784;SDS011;6456;42.680;23.260;2022-08-07T09:38:10;6.57;;;6.07;;
12784;SDS011;6456;42.680;23.260;2022-08-07T09:40:46;6.57;;;5.95;;
12784;SDS011;6456;42.680;23.260;2022-08-07T09:43:27;6.18;;;5.68;;
12784;SDS011;6456;42.680;23.260;2022-08-07T09:46:08;7.70;;;7.05;;
12784;SDS011;6456;42.680;23.260;2022-08-07T09:48:45;6.43;;;5.93;;
12784;SDS011;6456;42.680;23.260;2022-08-07T09:51:26;6.43;;;5.90;;
12784;SDS011;6456;42.680;23.260;2022-08-07T09:54:09;6.07;;;5.57;;
12784;SDS011;6456;42.680;23.260;2022-08-07T09:56:57;6.85;;;6.18;;
12784;SDS011;6456;42.680;23.260;2022-08-07T09:59:50;6.97;;;6.40;;
12784;SDS011;6456;42.680;23.260;2022-08-07T10:02:33;6.78;;;6.28;;
12784;SDS011;6456;42.680;23.260;2022-08-07T10:08:25;6.45;;;5.85;;
12784;SDS011;6456;42.680;23.260;2022-08-07T10:11:26;5.60;;;5.20;;
12784;SDS011;6456;42.680;23.260;2022-08-07T10:14:08;6.38;;;5.78;;
12784;SDS011;6456;42.680;23.260;2022-08-07T10:16:57;7.30;;;5.63;;
12784;SDS011;6456;42.680;23.260;2022-08-07T10:19:37;6.60;;;5.95;;
12784;SDS011;6456;42.680;23.260;2022-08-07T10:22:17;6.10;;;5.47;;
12784;SDS011;6456;42.680;23.260;2022-08-07T10:25:00;5.90;;;5.40;;
12784;SDS011;6456;42.680;23.260;2022-08-07T10:27:39;6.88;;;5.13;;
12784;SDS011;6456;42.680;23.260;2022-08-07T10:30:17;5.85;;;5.35;;
12784;SDS011;6456;42.680;23.260;2022-08-07T10:32:55;5.60;;;5.10;;
12784;SDS011;6456;42.680;23.260;2022-08-07T10:35:39;6.40;;;4.90;;
12784;SDS011;6456;42.680;23.260;2022-08-07T10:38:23;5.80;;;5.40;;
12784;SDS011;6456;42.680;23.260;2022-08-07T10:41:07;6.43;;;5.93;;
12784;SDS011;6456;42.680;23.260;2022-08-07T10:43:46;7.22;;;6.63;;
12784;SDS011;6456;42.680;23.260;2022-08-07T10:46:24;6.28;;;5.80;;
12784;SDS011;6456;42.680;23.260;2022-08-07T10:48:56;6.60;;;6.00;;
12784;SDS011;6456;42.680;23.260;2022-08-07T10:51:35;6.57;;;6.07;;
12784;SDS011;6456;42.680;23.260;2022-08-07T10:54:08;6.13;;;5.63;;
12784;SDS011;6456;42.680;23.260;2022-08-07T10:56:45;6.22;;;5.72;;
12784;SDS011;6456;42.680;23.260;2022-08-07T10:59:31;6.65;;;5.95;;
12784;SDS011;6456;42.680;23.260;2022-08-07T11:02:05;7.68;;;6.97;;
12784;SDS011;6456;42.680;23.260;2022-08-07T11:04:43;6.35;;;5.88;;
12784;SDS011;6456;42.680;23.260;2022-08-07T11:07:24;6.47;;;5.88;;
12784;SDS011;6456;42.680;23.260;2022-08-07T11:10:00;6.88;;;6.13;;
12784;SDS011;6456;42.680;23.260;2022-08-07T11:12:33;6.68;;;6.13;;
12784;SDS011;6456;42.680;23.260;2022-08-07T11:15:06;6.53;;;5.93;;
12784;SDS011;6456;42.680;23.260;2022-08-07T11:17:40;6.72;;;6.03;;
12784;SDS011;6456;42.680;23.260;2022-08-07T11:20:14;6.50;;;5.97;;
12784;SDS011;6456;42.680;23.260;2022-08-07T11:22:47;7.03;;;6.38;;
12784;SDS011;6456;42.680;23.260;2022-08-07T11:25:22;5.97;;;5.53;;
12784;SDS011;6456;42.680;23.260;2022-08-07T11:27:59;5.93;;;5.45;;
12784;SDS011;6456;42.680;23.260;2022-08-07T11:30:36;7.80;;;7.20;;
12784;SDS011;6456;42.680;23.260;2022-08-07T11:33:20;6.10;;;5.50;;
12784;SDS011;6456;42.680;23.260;2022-08-07T11:35:53;5.82;;;5.40;;
12784;SDS011;6456;42.680;23.260;2022-08-07T11:38:32;5.97;;;4.70;;
12784;SDS011;6456;42.680;23.260;2022-08-07T11:41:07;5.97;;;5.10;;
12784;SDS011;6456;42.680;23.260;2022-08-07T11:43:43;6.65;;;6.05;;
12784;SDS011;6456;42.680;23.260;2022-08-07T11:46:26;6.32;;;5.82;;
12784;SDS011;6456;42.680;23.260;2022-08-07T11:49:04;6.82;;;6.13;;
12784;SDS011;6456;42.680;23.260;2022-08-07T11:51:48;6.60;;;6.00;;
12784;SDS011;6456;42.680;23.260;2022-08-07T11:54:35;7.32;;;6.63;;
12784;SDS011;6456;42.680;23.260;2022-08-07T11:57:15;6.93;;;6.32;;
12784;SDS011;6456;42.680;23.260;2022-08-07T12:00:00;7.95;;;7.35;;
12784;SDS011;6456;42.680;23.260;2022-08-07T12:02:50;7.43;;;6.72;;
12784;SDS011;6456;42.680;23.260;2022-08-07T12:05:30;6.63;;;6.13;;
12784;SDS011;6456;42.680;23.260;2022-08-07T12:08:07;6.95;;;6.30;;
12784;SDS011;6456;42.680;23.260;2022-08-07T12:10:40;7.47;;;6.85;;
12784;SDS011;6456;42.680;23.260;2022-08-07T12:13:15;6.85;;;6.25;;
12784;SDS011;6456;42.680;23.260;2022-08-07T12:15:52;6.55;;;6.05;;
12784;SDS011;6456;42.680;23.260;2022-08-07T12:18:21;7.43;;;6.63;;
12784;SDS011;6456;42.680;23.260;2022-08-07T12:20:56;6.82;;;6.32;;
12784;SDS011;6456;42.680;23.260;2022-08-07T12:23:38;6.75;;;6.20;;
12784;SDS011;6456;42.680;23.260;2022-08-07T12:26:11;6.68;;;6.18;;
12784;SDS011;6456;42.680;23.260;2022-08-07T12:28:46;6.72;;;6.13;;
12784;SDS011;6456;42.680;23.260;2022-08-07T12:31:21;5.88;;;5.25;;
12784;SDS011;6456;42.680;23.260;2022-08-07T12:33:54;6.32;;;5.78;;
12784;SDS011;6456;42.680;23.260;2022-08-07T12:36:23;6.13;;;5.63;;
12784;SDS011;6456;42.680;23.260;2022-08-07T12:38:52;6.43;;;5.90;;
12784;SDS011;6456;42.680;23.260;2022-08-07T12:41:20;6.40;;;5.90;;
12784;SDS011;6456;42.680;23.260;2022-08-07T12:43:51;6.13;;;5.63;;
12784;SDS011;6456;42.680;23.260;2022-08-07T12:46:27;6.95;;;6.35;;
12784;SDS011;6456;42.680;23.260;2022-08-07T12:49:10;6.25;;;5.75;;
12784;SDS011;6456;42.680;23.260;2022-08-07T12:51:42;6.80;;;6.10;;
12784;SDS011;6456;42.680;23.260;2022-08-07T12:54:16;6.28;;;5.78;;
12784;SDS011;6456;42.680;23.260;2022-08-07T12:56:48;6.43;;;5.65;;
12784;SDS011;6456;42.680;23.260;2022-08-07T12:59:19;6.03;;;5.57;;
12784;SDS011;6456;42.680;23.260;2022-08-07T13:01:55;5.45;;;5.05;;
12784;SDS011;6456;42.680;23.260;2022-08-07T13:07:32;6.10;;;5.60;;
12784;SDS011;6456;42.680;23.260;2022-08-07T13:10:18;7.30;;;6.60;;
12784;SDS011;6456;42.680;23.260;2022-08-07T13:12:55;6.60;;;6.00;;
12784;SDS011;6456;42.680;23.260;2022-08-07T13:15:36;5.93;;;5.35;;
12784;SDS011;6456;42.680;23.260;2022-08-07T13:18:17;6.03;;;5.45;;
12784;SDS011;6456;42.680;23.260;2022-08-07T13:20:56;5.40;;;5.00;;
12784;SDS011;6456;42.680;23.260;2022-08-07T13:23:31;5.50;;;5.10;;
12784;SDS011;6456;42.680;23.260;2022-08-07T13:26:06;5.78;;;5.28;;
12784;SDS011;6456;42.680;23.260;2022-08-07T13:28:39;5.50;;;5.10;;
12784;SDS011;6456;42.680;23.260;2022-08-07T13:31:12;5.90;;;5.40;;
12784;SDS011;6456;42.680;23.260;2022-08-07T13:33:49;5.70;;;5.30;;
12784;SDS011;6456;42.680;23.260;2022-08-07T13:36:22;5.78;;;5.38;;
12784;SDS011;6456;42.680;23.260;2022-08-07T13:38:57;7.30;;;6.60;;
12784;SDS011;6456;42.680;23.260;2022-08-07T13:41:33;5.50;;;5.10;;
12784;SDS011;6456;42.680;23.260;2022-08-07T13:44:04;5.78;;;5.28;;
12784;SDS011;6456;42.680;23.260;2022-08-07T13:46:34;5.75;;;5.28;;
12784;SDS011;6456;42.680;23.260;2022-08-07T13:49:05;5.25;;;4.85;;
12784;SDS011;6456;42.680;23.260;2022-08-07T13:51:35;8.90;;;5.97;;
12784;SDS011;6456;42.680;23.260;2022-08-07T13:54:04;7.63;;;6.18;;
12784;SDS011;6456;42.680;23.260;2022-08-07T13:56:33;5.93;;;5.50;;
12784;SDS011;6456;42.680;23.260;2022-08-07T13:59:02;6.50;;;5.90;;
12784;SDS011;6456;42.680;23.260;2022-08-07T14:01:30;6.32;;;5.10;;
12784;SDS011;6456;42.680;23.260;2022-08-07T14:04:00;5.75;;;5.30;;
12784;SDS011;6456;42.680;23.260;2022-08-07T14:06:36;6.55;;;6.03;;
12784;SDS011;6456;42.680;23.260;2022-08-07T14:09:08;6.03;;;5.57;;
12784;SDS011;6456;42.680;23.260;2022-08-07T14:11:43;6.60;;;6.00;;
12784;SDS011;6456;42.680;23.260;2022-08-07T14:14:13;6.40;;;5.78;;
12784;SDS011;6456;42.680;23.260;2022-08-07T14:16:42;6.20;;;5.30;;
12784;SDS011;6456;42.680;23.260;2022-08-07T14:19:14;6.53;;;6.03;;
12784;SDS011;6456;42.680;23.260;2022-08-07T14:21:47;6.00;;;5.40;;
12784;SDS011;6456;42.680;23.260;2022-08-07T14:24:19;7.03;;;6.05;;
12784;SDS011;6456;42.680;23.260;2022-08-07T14:26:51;6.78;;;6.03;;
12784;SDS011;6456;42.680;23.260;2022-08-07T14:29:23;6.88;;;6.28;;
12784;SDS011;6456;42.680;23.260;2022-08-07T14:31:56;6.60;;;6.00;;
12784;SDS011;6456;42.680;23.260;2022-08-07T14:34:25;6.82;;;6.13;;
12784;SDS011;6456;42.680;23.260;2022-08-07T14:36:55;6.22;;;5.57;;
12784;SDS011;6456;42.680;23.260;2022-08-07T14:39:25;7.07;;;6.47;;
12784;SDS011;6456;42.680;23.260;2022-08-07T14:41:53;6.82;;;6.22;;
12784;SDS011;6456;42.680;23.260;2022-08-07T14:44:22;6.68;;;6.10;;
12784;SDS011;6456;42.680;23.260;2022-08-07T14:46:52;6.43;;;5.93;;
12784;SDS011;6456;42.680;23.260;2022-08-07T14:49:22;7.38;;;6.57;;
12784;SDS011;6456;42.680;23.260;2022-08-07T14:51:53;7.88;;;6.97;;
12784;SDS011;6456;42.680;23.260;2022-08-07T14:54:24;8.65;;;7.28;;
12784;SDS011;6456;42.680;23.260;2022-08-07T14:56:55;7.47;;;6.88;;
12784;SDS011;6456;42.680;23.260;2022-08-07T14:59:23;5.93;;;5.50;;
12784;SDS011;6456;42.680;23.260;2022-08-07T15:01:53;6.13;;;5.72;;
12784;SDS011;6456;42.680;23.260;2022-08-07T15:04:23;5.80;;;5.40;;
12784;SDS011;6456;42.680;23.260;2022-08-07T15:06:51;6.75;;;6.15;;
12784;SDS011;6456;42.680;23.260;2022-08-07T15:09:20;6.57;;;5.97;;
12784;SDS011;6456;42.680;23.260;2022-08-07T15:11:50;6.18;;;5.63;;
12784;SDS011;6456;42.680;23.260;2022-08-07T15:14:22;6.10;;;5.60;;
12784;SDS011;6456;42.680;23.260;2022-08-07T15:16:51;6.88;;;6.30;;
12784;SDS011;6456;42.680;23.260;2022-08-07T15:19:23;6.35;;;5.82;;
12784;SDS011;6456;42.680;23.260;2022-08-07T15:21:55;6.15;;;5.63;;
12784;SDS011;6456;42.680;23.260;2022-08-07T15:24:29;5.93;;;5.53;;
12784;SDS011;6456;42.680;23.260;2022-08-07T15:27:02;6.65;;;6.15;;
12784;SDS011;6456;42.680;23.260;2022-08-07T15:29:34;6.90;;;6.22;;
12784;SDS011;6456;42.680;23.260;2022-08-07T15:32:04;6.90;;;6.30;;
12784;SDS011;6456;42.680;23.260;2022-08-07T15:34:34;6.45;;;5.95;;
12784;SDS011;6456;42.680;23.260;2022-08-07T15:37:02;7.03;;;6.32;;